Time;durP1;ratioP1;P1;durP2;ratioP2;P2;SDS_P1;SDS_P2;PMS_P1;PMS_P2;Temp;Humidity;BMP_temperature;BMP_pressure;BME280_temperature;BME280_humidity;BME280_pressure;Samples;Min_cycle;Max_cycle;Signal;HPM_P1;HPM_P2
2023/11/04 00:00:21;;;;;;;38.50;35.35;;;;;;;14.79;100.00;99810.88;5028258;28;20507;-74
2023/11/04 00:02:48;;;;;;;42.17;38.58;;;;;;;14.78;100.00;99811.97;5028035;28;20215;-74
2023/11/04 00:05:15;;;;;;;52.72;48.53;;;;;;;14.74;100.00;99826.91;5028753;28;20049;-74
2023/11/04 00:07:42;;;;;;;49.42;45.40;;;;;;;14.52;100.00;99829.63;5028664;28;20072;-73
2023/11/04 00:10:10;;;;;;;48.58;43.47;;;;;;;14.62;100.00;99829.75;5027845;28;20163;-73
2023/11/04 00:12:38;;;;;;;46.25;42.45;;;;;;;14.73;100.00;99825.28;5028118;28;20067;-74
2023/11/04 00:15:06;;;;;;;47.20;43.38;;;;;;;14.82;100.00;99820.28;5027836;28;20128;-75
2023/11/04 00:17:33;;;;;;;48.67;44.78;;;;;;;14.79;100.00;99818.91;5028485;28;20495;-75
2023/11/04 00:20:00;;;;;;;45.20;41.30;;;;;;;14.66;100.00;99801.44;5028300;28;20056;-74
2023/11/04 00:22:29;;;;;;;45.03;41.25;;;;;;;14.72;100.00;99812.19;5028902;28;20064;-75
2023/11/04 00:24:56;;;;;;;47.28;43.13;;;;;;;14.71;100.00;99805.22;5023560;28;20049;-74
2023/11/04 00:27:23;;;;;;;52.38;48.17;;;;;;;14.48;100.00;99804.47;5028027;28;20068;-76
2023/11/04 00:29:51;;;;;;;48.63;44.47;;;;;;;14.68;100.00;99787.03;5027918;28;20045;-75
2023/11/04 00:32:18;;;;;;;48.55;44.70;;;;;;;14.69;100.00;99760.03;5027561;28;20518;-75
2023/11/04 00:34:45;;;;;;;48.72;44.88;;;;;;;14.52;100.00;99751.34;5027944;28;20054;-75
2023/11/04 00:37:12;;;;;;;53.53;49.33;;;;;;;14.34;100.00;99749.81;5026578;28;20068;-75
2023/11/04 00:39:39;;;;;;;51.80;47.70;;;;;;;14.28;100.00;99746.34;5028789;28;20046;-75
2023/11/04 00:42:07;;;;;;;45.40;41.80;;;;;;;14.40;100.00;99746.13;5028229;28;20503;-75
2023/11/04 00:44:34;;;;;;;42.13;38.63;;;;;;;14.64;100.00;99743.97;5027585;28;20434;-75
2023/11/04 00:47:02;;;;;;;46.95;43.15;;;;;;;14.52;100.00;99740.66;5024014;28;20115;-75
2023/11/04 00:49:29;;;;;;;52.20;47.90;;;;;;;14.51;100.00;99736.34;5027770;28;20049;-75
2023/11/04 00:51:56;;;;;;;43.28;39.72;;;;;;;14.48;100.00;99737.66;5027601;28;20049;-75
2023/11/04 00:54:23;;;;;;;49.70;45.80;;;;;;;14.58;100.00;99735.13;5027354;28;20057;-75
2023/11/04 00:56:50;;;;;;;46.58;42.83;;;;;;;14.54;100.00;99726.00;5028681;28;20133;-75
2023/11/04 00:59:17;;;;;;;52.78;48.58;;;;;;;14.33;100.00;99730.31;5027496;28;20052;-75
2023/11/04 01:01:44;;;;;;;47.40;43.50;;;;;;;14.32;100.00;99730.59;5027790;28;20049;-75
2023/11/04 01:04:12;;;;;;;44.75;40.63;;;;;;;14.33;100.00;99724.19;5027099;28;20057;-75
2023/11/04 01:06:39;;;;;;;49.83;45.83;;;;;;;14.35;100.00;99714.06;5028188;28;20055;-75
2023/11/04 01:09:06;;;;;;;52.28;47.85;;;;;;;14.34;100.00;99715.94;5027119;28;20050;-75
2023/11/04 01:11:33;;;;;;;45.97;42.17;;;;;;;14.36;100.00;99721.00;5027471;28;20172;-75
2023/11/04 01:14:00;;;;;;;53.80;49.40;;;;;;;14.56;100.00;99707.03;5027454;28;20049;-76
2023/11/04 01:16:27;;;;;;;47.78;43.97;;;;;;;14.70;100.00;99702.84;5027097;28;20059;-75
2023/11/04 01:18:54;;;;;;;42.80;38.97;;;;;;;14.85;100.00;99704.81;5027221;28;21488;-75
2023/11/04 01:21:23;;;;;;;49.80;45.92;;;;;;;15.04;100.00;99700.66;5027513;28;20458;-75
2023/11/04 01:23:53;;;;;;;46.90;43.10;;;;;;;14.98;100.00;99688.31;5026961;28;20060;-75
2023/11/04 01:26:20;;;;;;;45.58;41.78;;;;;;;15.03;100.00;99693.69;5022571;28;20048;-75
2023/11/04 01:28:46;;;;;;;42.63;39.20;;;;;;;15.05;100.00;99696.09;5027389;28;20060;-75
2023/11/04 01:31:13;;;;;;;44.50;40.90;;;;;;;14.95;100.00;99691.50;5027308;28;20496;-75
2023/11/04 01:33:40;;;;;;;45.33;41.53;;;;;;;14.93;100.00;99672.25;5026797;28;20059;-75
2023/11/04 01:36:08;;;;;;;46.22;42.47;;;;;;;14.95;100.00;99662.09;5028593;28;20525;-75
2023/11/04 01:38:36;;;;;;;43.85;40.35;;;;;;;14.98;100.00;99658.13;5026964;28;20050;-75
2023/11/04 01:41:04;;;;;;;45.80;42.22;;;;;;;14.79;100.00;99657.72;5027196;28;20052;-75
2023/11/04 01:43:33;;;;;;;61.30;50.13;;;;;;;14.42;100.00;99667.34;5027056;28;20053;-75
2023/11/04 01:46:17;;;;;;;56.45;52.05;;;;;;;14.83;100.00;99661.50;5025422;28;20056;-75
2023/11/04 01:48:45;;;;;;;49.05;45.33;;;;;;;14.78;100.00;99664.94;5028539;28;20057;-75
2023/11/04 01:51:13;;;;;;;53.33;49.13;;;;;;;14.75;100.00;99653.97;5030325;28;20063;-75
2023/11/04 01:53:43;;;;;;;50.95;46.80;;;;;;;14.53;100.00;99652.25;5030804;28;20045;-75
2023/11/04 01:56:12;;;;;;;58.63;54.13;;;;;;;14.48;100.00;99635.34;5031307;28;20053;-76
2023/11/04 01:58:40;;;;;;;60.67;56.03;;;;;;;14.64;100.00;99599.66;5030630;28;20052;-76
2023/11/04 02:01:09;;;;;;;50.35;45.92;;;;;;;14.59;100.00;99584.41;5030886;28;20072;-75
2023/11/04 02:03:36;;;;;;;53.50;49.30;;;;;;;14.57;100.00;99561.69;5030864;28;20050;-76
2023/11/04 02:06:03;;;;;;;49.55;45.35;;;;;;;14.58;100.00;99561.44;5030747;28;20046;-76
2023/11/04 02:08:30;;;;;;;51.50;47.30;;;;;;;14.44;100.00;99579.75;5030575;28;20045;-75
2023/11/04 02:10:58;;;;;;;55.92;51.53;;;;;;;14.47;100.00;99601.69;5030443;28;20054;-76
2023/11/04 02:13:25;;;;;;;49.45;45.28;;;;;;;14.51;100.00;99592.09;5030364;28;20080;-75
2023/11/04 02:15:52;;;;;;;52.92;48.63;;;;;;;14.65;100.00;99582.56;5030568;28;20049;-75
2023/11/04 02:18:19;;;;;;;46.78;42.88;;;;;;;14.73;100.00;99576.72;5030820;28;20450;-76
2023/11/04 02:20:47;;;;;;;45.13;41.22;;;;;;;14.71;100.00;99554.81;5030375;28;20503;-76
2023/11/04 02:23:16;;;;;;;53.28;48.88;;;;;;;14.62;100.00;99537.66;5030321;28;20107;-76
2023/11/04 02:25:43;;;;;;;47.20;43.22;;;;;;;14.60;100.00;99551.28;5025662;28;20037;-75
2023/11/04 02:28:10;;;;;;;44.47;40.78;;;;;;;14.58;100.00;99541.91;5029751;28;20060;-76
2023/11/04 02:30:37;;;;;;;50.85;46.45;;;;;;;14.54;100.00;99556.88;5029830;28;20107;-75
2023/11/04 02:33:04;;;;;;;54.45;50.15;;;;;;;14.23;100.00;99553.19;5030244;28;20057;-75
2023/11/04 02:35:31;;;;;;;53.50;49.05;;;;;;;14.47;100.00;99543.72;5032481;28;20052;-75
2023/11/04 02:37:58;;;;;;;51.15;46.70;;;;;;;14.50;100.00;99551.22;5030187;28;20446;-75
2023/11/04 02:40:26;;;;;;;48.65;44.55;;;;;;;14.56;100.00;99568.09;5029176;28;20049;-75
2023/11/04 02:42:53;;;;;;;47.88;43.80;;;;;;;14.30;100.00;99599.97;5029958;28;20057;-75
2023/11/04 02:45:20;;;;;;;48.92;44.78;;;;;;;14.57;100.00;99607.09;5029950;28;20049;-75
2023/11/04 02:47:47;;;;;;;49.35;45.15;;;;;;;14.55;100.00;99588.66;5029871;28;20061;-75
2023/11/04 02:50:14;;;;;;;47.85;43.92;;;;;;;14.48;100.00;99558.66;5030486;28;20067;-75
2023/11/04 02:52:41;;;;;;;46.65;42.70;;;;;;;14.54;100.00;99559.53;5029881;28;20481;-75
2023/11/04 02:55:09;;;;;;;55.78;51.28;;;;;;;14.37;100.00;99547.13;5029674;28;20450;-75
2023/11/04 02:57:37;;;;;;;50.25;46.17;;;;;;;14.40;100.00;99545.78;5028266;28;20068;-75
2023/11/04 03:00:05;;;;;;;53.95;49.45;;;;;;;14.30;100.00;99549.22;5021524;28;20172;-75
2023/11/04 03:02:32;;;;;;;67.28;61.80;;;;;;;14.41;100.00;99556.22;5022983;28;20077;-76
2023/11/04 03:05:00;;;;;;;74.78;69.13;;;;;;;14.19;100.00;99551.03;5029439;28;20048;-76
2023/11/04 03:07:27;;;;;;;64.35;58.72;;;;;;;14.38;100.00;99551.41;5028913;28;20050;-75
2023/11/04 03:09:54;;;;;;;69.18;63.63;;;;;;;14.34;100.00;99545.00;5021732;28;20136;-75
2023/11/04 03:12:20;;;;;;;52.00;47.50;;;;;;;14.49;100.00;99535.41;5023261;28;20576;-75
2023/11/04 03:14:49;;;;;;;52.22;47.88;;;;;;;14.62;100.00;99529.66;5020280;28;20081;-75
2023/11/04 03:17:16;;;;;;;56.60;52.10;;;;;;;14.55;100.00;99543.22;5023876;28;20045;-75
2023/11/04 03:19:45;;;;;;;55.28;50.78;;;;;;;14.62;100.00;99543.00;5024517;28;20046;-76
2023/11/04 03:22:12;;;;;;;51.38;47.17;;;;;;;14.53;100.00;99537.34;5025900;28;20484;-75
2023/11/04 03:24:43;;;;;;;69.30;64.00;;;;;;;14.59;100.00;99533.66;5022414;28;20042;-75
2023/11/04 03:27:12;;;;;;;65.07;59.97;;;;;;;14.61;100.00;99539.53;5017228;28;20092;-75
2023/11/04 03:29:39;;;;;;;63.88;58.97;;;;;;;14.48;100.00;99531.16;5024155;28;20504;-76
2023/11/04 03:32:08;;;;;;;71.13;65.82;;;;;;;14.12;100.00;99528.28;5022880;28;20083;-75
2023/11/04 03:34:35;;;;;;;68.72;63.67;;;;;;;14.30;100.00;99527.84;5025273;28;20060;-75
2023/11/04 03:37:02;;;;;;;71.10;65.90;;;;;;;14.38;100.00;99519.34;5025637;28;20060;-75
2023/11/04 03:39:30;;;;;;;60.85;56.15;;;;;;;14.38;100.00;99527.38;5024646;28;20145;-76
2023/11/04 03:41:57;;;;;;;75.68;70.07;;;;;;;14.52;100.00;99525.03;5022589;28;20050;-75
2023/11/04 03:44:24;;;;;;;61.00;56.10;;;;;;;14.79;100.00;99535.56;5022531;28;20049;-76
2023/11/04 03:46:51;;;;;;;59.55;54.65;;;;;;;15.00;100.00;99523.06;5022148;28;20498;-75
2023/11/04 03:49:20;;;;;;;44.72;40.67;;;;;;;15.02;100.00;99504.09;5026387;28;20079;-75
2023/11/04 03:51:46;;;;;;;52.33;47.92;;;;;;;15.06;100.00;99514.00;5023733;28;20049;-75
2023/11/04 03:54:13;;;;;;;48.45;44.13;;;;;;;15.06;100.00;99514.00;5022937;28;20046;-76
2023/11/04 03:56:40;;;;;;;57.50;52.80;;;;;;;15.05;100.00;99519.63;5029354;28;20072;-75
2023/11/04 03:59:07;;;;;;;52.17;47.67;;;;;;;15.07;100.00;99512.94;5028443;28;20052;-73
2023/11/04 04:01:39;;;;;;;46.70;42.60;;;;;;;15.31;100.00;99502.56;5028781;28;20395;-73
2023/11/04 04:04:06;;;;;;;45.50;41.50;;;;;;;15.32;100.00;99498.81;5026700;28;20499;-75
2023/11/04 04:06:35;;;;;;;48.08;43.97;;;;;;;15.26;100.00;99501.75;5029061;28;20514;-73
2023/11/04 04:09:02;;;;;;;43.20;39.50;;;;;;;15.11;100.00;99497.97;5028166;28;20041;-73
2023/11/04 04:11:29;;;;;;;66.93;61.83;;;;;;;15.16;100.00;99507.06;5028379;28;20054;-76
2023/11/04 04:13:56;;;;;;;79.05;73.43;;;;;;;15.14;100.00;99502.00;5024313;28;20042;-75
2023/11/04 04:16:23;;;;;;;45.83;41.95;;;;;;;15.36;100.00;99504.41;5025810;28;20046;-73
2023/11/04 04:18:51;;;;;;;45.22;41.42;;;;;;;15.51;100.00;99507.09;5021827;28;20067;-73
2023/11/04 04:21:18;;;;;;;50.33;46.22;;;;;;;15.63;100.00;99514.84;5022634;28;20060;-74
2023/11/04 04:23:47;;;;;;;61.38;56.80;;;;;;;15.51;100.00;99517.00;5023640;28;20450;-73
2023/11/04 04:26:23;;;;;;;52.45;48.42;;;;;;;15.60;100.00;99525.31;5018028;28;20049;-74
2023/11/04 04:28:50;;;;;;;52.67;48.38;;;;;;;15.40;100.00;99518.06;5021197;28;20567;-73
2023/11/04 04:31:17;;;;;;;60.58;54.78;;;;;;;15.44;100.00;99519.16;5020647;28;20056;-74
2023/11/04 04:33:45;;;;;;;44.70;41.00;;;;;;;15.32;100.00;99522.88;5021196;28;20484;-74
2023/11/04 04:36:12;;;;;;;45.53;41.63;;;;;;;15.43;100.00;99518.34;5022183;28;20545;-74
2023/11/04 04:38:39;;;;;;;56.63;51.92;;;;;;;15.33;100.00;99504.94;5022197;28;20045;-74
2023/11/04 04:41:08;;;;;;;50.28;46.25;;;;;;;15.21;100.00;99515.09;5024823;28;20057;-74
2023/11/04 04:43:36;;;;;;;60.97;56.28;;;;;;;15.11;100.00;99532.72;5022568;28;20503;-73
2023/11/04 04:46:04;;;;;;;48.67;44.78;;;;;;;15.18;100.00;99529.00;5021558;28;20519;-73
2023/11/04 04:48:31;;;;;;;47.08;43.08;;;;;;;15.16;100.00;99523.09;5022300;28;20050;-73
2023/11/04 04:50:58;;;;;;;46.03;42.03;;;;;;;15.19;100.00;99509.19;5025122;28;20514;-74
2023/11/04 04:53:25;;;;;;;51.50;47.15;;;;;;;14.92;100.00;99518.25;5021484;28;20049;-73
2023/11/04 04:55:54;;;;;;;52.42;48.13;;;;;;;14.64;100.00;99530.16;5023422;28;20546;-73
2023/11/04 04:58:23;;;;;;;57.13;52.55;;;;;;;14.89;100.00;99534.81;5024415;28;20107;-73
2023/11/04 05:00:50;;;;;;;48.75;44.75;;;;;;;14.96;100.00;99529.22;5020386;28;20049;-73
2023/11/04 05:03:17;;;;;;;48.80;44.80;;;;;;;14.77;100.00;99544.94;5023176;28;20046;-73
2023/11/04 05:05:44;;;;;;;44.55;40.85;;;;;;;14.89;100.00;99549.00;5021668;28;20053;-73
2023/11/04 05:08:11;;;;;;;49.00;45.10;;;;;;;14.90;100.00;99544.44;5023493;28;20046;-73
2023/11/04 05:10:38;;;;;;;45.95;42.05;;;;;;;15.05;100.00;99565.88;5020180;28;20042;-73
2023/11/04 05:13:04;;;;;;;43.70;39.60;;;;;;;15.06;100.00;99550.63;5022461;28;20107;-74
2023/11/04 05:15:33;;;;;;;41.45;37.85;;;;;;;15.03;100.00;99549.28;5021205;28;20050;-74
2023/11/04 05:18:00;;;;;;;41.53;37.83;;;;;;;14.94;100.00;99552.75;5022690;28;20045;-73
2023/11/04 05:20:29;;;;;;;43.45;39.95;;;;;;;15.00;100.00;99562.38;5020404;28;20127;-74
2023/11/04 05:22:57;;;;;;;40.40;36.90;;;;;;;14.98;100.00;99541.28;5021094;28;20548;-73
2023/11/04 05:25:24;;;;;;;42.60;39.10;;;;;;;15.04;100.00;99550.91;5022297;28;20049;-73
2023/11/04 05:27:51;;;;;;;44.67;41.08;;;;;;;14.77;100.00;99561.78;5029794;28;20107;-73
2023/11/04 05:30:18;;;;;;;44.33;40.42;;;;;;;14.88;100.00;99552.72;5027199;28;20103;-74
2023/11/04 05:32:47;;;;;;;43.28;39.58;;;;;;;14.69;100.00;99550.78;5027177;28;20471;-73
2023/11/04 05:35:14;;;;;;;46.78;42.88;;;;;;;14.69;100.00;99564.16;5028515;28;20063;-73
2023/11/04 05:37:43;;;;;;;46.25;42.15;;;;;;;14.80;100.00;99584.50;5035664;28;20053;-74
2023/11/04 05:40:10;;;;;;;48.88;44.88;;;;;;;14.83;100.00;99600.03;5027107;28;20053;-73
2023/11/04 05:42:37;;;;;;;46.97;42.88;;;;;;;14.82;100.00;99590.38;5026929;28;20042;-73
2023/11/04 05:45:04;;;;;;;50.88;46.70;;;;;;;14.88;100.00;99547.38;5026934;28;20045;-73
2023/11/04 05:47:32;;;;;;;45.15;41.35;;;;;;;14.82;100.00;99534.25;5026508;28;20053;-73
2023/11/04 05:50:00;;;;;;;45.33;41.53;;;;;;;14.92;100.00;99510.25;5026408;28;20582;-73
2023/11/04 05:52:27;;;;;;;48.85;44.55;;;;;;;14.70;100.00;99526.47;5026338;28;20470;-74
2023/11/04 05:54:54;;;;;;;53.80;49.50;;;;;;;14.73;100.00;99541.97;5021757;28;20139;-73
2023/11/04 05:57:21;;;;;;;56.47;52.08;;;;;;;14.68;100.00;99528.59;5027793;28;20430;-74
2023/11/04 05:59:48;;;;;;;44.65;40.90;;;;;;;14.67;100.00;99502.94;5027039;28;20700;-73
2023/11/04 06:02:15;;;;;;;47.25;43.35;;;;;;;14.79;100.00;99495.47;5026040;28;20053;-73
2023/11/04 06:04:43;;;;;;;47.60;43.72;;;;;;;14.88;100.00;99506.47;5025902;28;20045;-74
2023/11/04 06:07:11;;;;;;;46.85;43.05;;;;;;;14.72;100.00;99512.84;5027460;28;20056;-73
2023/11/04 06:09:38;;;;;;;46.00;42.20;;;;;;;14.81;100.00;99519.28;5026395;28;20050;-73
2023/11/04 06:12:05;;;;;;;40.92;37.33;;;;;;;14.74;100.00;99516.88;5025954;28;20429;-73
2023/11/04 06:14:32;;;;;;;47.20;43.30;;;;;;;14.70;100.00;99509.63;5026258;28;20514;-74
2023/11/04 06:16:59;;;;;;;47.65;43.55;;;;;;;14.73;100.00;99515.25;5025949;28;20049;-73
2023/11/04 06:19:27;;;;;;;46.20;42.30;;;;;;;14.74;100.00;99508.84;5026223;28;20132;-74
2023/11/04 06:21:54;;;;;;;48.47;44.38;;;;;;;14.89;100.00;99505.41;5025504;28;20078;-73
2023/11/04 06:24:22;;;;;;;46.97;43.00;;;;;;;15.02;100.00;99512.13;5025631;28;20053;-73
2023/11/04 06:26:49;;;;;;;50.30;46.10;;;;;;;15.00;100.00;99523.06;5020691;28;20514;-73
2023/11/04 06:29:17;;;;;;;49.58;45.45;;;;;;;15.04;100.00;99526.06;5031793;28;20053;-73
2023/11/04 06:31:44;;;;;;;51.25;47.05;;;;;;;15.05;100.00;99533.78;5037429;28;20049;-73
2023/11/04 06:34:11;;;;;;;51.33;47.13;;;;;;;15.08;100.00;99527.13;5032330;28;20053;-73
2023/11/04 06:36:38;;;;;;;50.28;46.25;;;;;;;15.12;100.00;99520.16;5032016;28;20407;-73
2023/11/04 06:39:05;;;;;;;50.25;46.15;;;;;;;15.25;100.00;99505.47;5033152;28;20577;-73
2023/11/04 06:41:34;;;;;;;51.08;46.97;;;;;;;15.29;100.00;99490.50;5029347;28;20132;-73
2023/11/04 06:44:01;;;;;;;50.53;46.42;;;;;;;15.33;100.00;99480.88;5029173;28;20049;-73
2023/11/04 06:46:28;;;;;;;52.58;48.28;;;;;;;15.52;100.00;99492.66;5029419;28;20045;-73
2023/11/04 06:48:55;;;;;;;52.50;48.22;;;;;;;15.52;100.00;99478.47;5027709;28;20046;-73
2023/11/04 06:51:22;;;;;;;48.78;44.78;;;;;;;15.61;100.00;99462.66;5029458;28;20068;-73
2023/11/04 06:53:50;;;;;;;47.63;43.80;;;;;;;15.55;100.00;99451.97;5029372;28;20465;-73
2023/11/04 06:56:17;;;;;;;48.53;44.63;;;;;;;15.32;100.00;99447.19;5029384;28;20446;-73
2023/11/04 06:58:46;;;;;;;47.22;43.42;;;;;;;15.34;100.00;99455.75;5029200;28;20057;-74
2023/11/04 07:01:16;;;;;;;51.85;47.65;;;;;;;15.30;100.00;99454.66;5031405;28;20412;-73
2023/11/04 07:03:45;;;;;;;51.92;47.72;;;;;;;15.51;100.00;99453.56;5035203;28;20059;-73
2023/11/04 07:06:15;;;;;;;54.65;50.35;;;;;;;15.75;100.00;99447.69;5031042;28;20569;-74
2023/11/04 07:08:42;;;;;;;58.40;53.72;;;;;;;15.87;100.00;99448.19;5034846;28;20414;-73
2023/11/04 07:11:12;;;;;;;56.88;52.08;;;;;;;15.87;100.00;99464.28;5029466;28;20057;-73
2023/11/04 07:13:39;;;;;;;50.25;45.95;;;;;;;15.82;100.00;99479.53;5028485;28;20075;-74
2023/11/04 07:16:09;;;;;;;57.90;53.22;;;;;;;15.98;100.00;99486.47;5027856;28;21076;-74
2023/11/04 07:18:36;;;;;;;56.03;50.90;;;;;;;16.09;100.00;99498.75;5026807;28;20037;-73
2023/11/04 07:21:04;;;;;;;61.22;56.25;;;;;;;16.08;100.00;99499.84;5027913;28;20054;-73
2023/11/04 07:23:31;;;;;;;62.00;57.08;;;;;;;16.06;100.00;99480.56;5027576;28;20574;-74
2023/11/04 07:25:58;;;;;;;71.38;65.57;;;;;;;16.05;100.00;99459.41;5027794;28;20067;-73
2023/11/04 07:28:25;;;;;;;62.28;56.70;;;;;;;15.83;100.00;99454.38;5021203;28;20064;-73
2023/11/04 07:30:53;;;;;;;66.32;60.63;;;;;;;15.89;100.00;99453.31;5028716;28;20186;-74
2023/11/04 07:33:22;;;;;;;63.50;58.10;;;;;;;15.95;100.00;99466.41;5027861;28;20049;-73
2023/11/04 07:35:49;;;;;;;60.67;55.08;;;;;;;15.63;100.00;99481.94;5023355;28;20053;-73
2023/11/04 07:38:16;;;;;;;67.32;61.22;;;;;;;15.58;100.00;99502.28;5024556;28;20055;-74
2023/11/04 07:40:43;;;;;;;70.30;64.40;;;;;;;15.66;100.00;99503.63;5026829;28;20128;-73
2023/11/04 07:43:10;;;;;;;80.32;74.72;;;;;;;16.28;100.00;99499.00;5028693;28;20084;-74
2023/11/04 07:45:38;;;;;;;76.72;71.43;;;;;;;16.19;100.00;99503.31;5027950;28;20712;-74
2023/11/04 07:48:06;;;;;;;70.68;65.45;;;;;;;16.17;100.00;99506.25;5027776;28;20053;-74
2023/11/04 07:50:36;;;;;;;71.05;65.85;;;;;;;16.16;100.00;99504.66;5027707;28;20073;-73
2023/11/04 07:53:02;;;;;;;74.68;69.57;;;;;;;16.24;100.00;99512.09;5029693;28;20572;-74
2023/11/04 07:55:29;;;;;;;79.18;73.50;;;;;;;16.11;100.00;99517.25;5027955;28;20556;-73
2023/11/04 07:57:56;;;;;;;62.90;57.90;;;;;;;16.10;100.00;99524.47;5026901;28;20044;-74
2023/11/04 08:00:23;;;;;;;58.33;53.72;;;;;;;16.18;100.00;99517.75;5029239;28;20075;-74
2023/11/04 08:02:50;;;;;;;61.92;57.13;;;;;;;16.32;100.00;99526.84;5028401;28;20455;-74
2023/11/04 08:05:17;;;;;;;58.70;53.80;;;;;;;16.31;100.00;99527.91;5024975;28;20534;-74
2023/11/04 08:07:45;;;;;;;59.88;55.17;;;;;;;16.38;100.00;99536.47;5022716;28;20431;-74
2023/11/04 08:10:12;;;;;;;65.65;60.65;;;;;;;16.40;100.00;99533.50;5027577;28;20052;-74
2023/11/04 08:12:39;;;;;;;69.80;64.35;;;;;;;16.37;100.00;99521.47;5027332;28;20048;-73
2023/11/04 08:15:07;;;;;;;64.20;59.20;;;;;;;16.50;100.00;99517.41;5027203;28;20049;-74
2023/11/04 08:17:34;;;;;;;62.63;57.83;;;;;;;16.39;100.00;99527.34;5025765;28;20053;-75
2023/11/04 08:20:05;;;;;;;66.75;61.65;;;;;;;16.54;100.00;99523.81;5024842;28;20056;-73
2023/11/04 08:22:32;;;;;;;61.95;56.97;;;;;;;16.48;100.00;99538.31;5025426;28;20162;-76
2023/11/04 08:25:01;;;;;;;64.25;58.97;;;;;;;16.43;100.00;99557.91;5028819;28;20118;-76
2023/11/04 08:27:28;;;;;;;58.55;53.85;;;;;;;16.52;100.00;99576.91;5014276;28;20045;-76
2023/11/04 08:29:55;;;;;;;58.75;54.15;;;;;;;16.39;100.00;99583.59;5024569;28;20052;-76
2023/11/04 08:32:24;;;;;;;57.40;52.85;;;;;;;16.36;100.00;99584.16;5022712;28;20060;-76
2023/11/04 08:34:51;;;;;;;62.95;58.45;;;;;;;16.06;100.00;99576.16;5025633;28;20049;-76
2023/11/04 08:37:18;;;;;;;60.63;55.42;;;;;;;16.01;100.00;99545.66;5023885;28;20054;-76
2023/11/04 08:39:45;;;;;;;53.78;49.58;;;;;;;16.52;100.00;99515.25;5027843;28;20451;-76
2023/11/04 08:42:14;;;;;;;59.35;54.90;;;;;;;15.91;100.00;99510.03;5024233;28;20045;-76
2023/11/04 08:44:41;;;;;;;61.67;56.97;;;;;;;15.66;100.00;99541.09;5023477;28;20053;-76
2023/11/04 08:47:08;;;;;;;67.15;61.92;;;;;;;15.61;100.00;99519.66;5022685;28;20438;-75
2023/11/04 08:49:35;;;;;;;63.45;58.65;;;;;;;15.53;100.00;99514.88;5024688;28;20052;-76
2023/11/04 08:52:02;;;;;;;67.32;62.13;;;;;;;15.48;100.00;99499.59;5029025;28;20052;-76
2023/11/04 08:54:29;;;;;;;65.30;60.35;;;;;;;15.49;100.00;99497.72;5023599;28;20438;-76
2023/11/04 08:56:55;;;;;;;112.88;96.68;;;;;;;15.50;100.00;99497.47;5028733;28;20497;-75
2023/11/04 08:59:24;;;;;;;81.82;74.65;;;;;;;15.57;100.00;99505.22;5025467;28;20135;-75
2023/11/04 09:01:52;;;;;;;112.00;88.60;;;;;;;15.53;100.00;99515.66;5025971;28;20411;-75
2023/11/04 09:04:19;;;;;;;92.45;84.57;;;;;;;15.41;100.00;99496.41;5028923;28;20057;-75
2023/11/04 09:06:45;;;;;;;76.70;70.60;;;;;;;15.39;100.00;99469.09;5025308;28;20041;-75
2023/11/04 09:09:13;;;;;;;76.18;70.55;;;;;;;15.48;100.00;99450.63;5025835;28;20038;-76
2023/11/04 09:11:41;;;;;;;77.18;71.13;;;;;;;15.49;100.00;99439.69;5022538;28;20049;-76
2023/11/04 09:14:09;;;;;;;82.55;75.22;;;;;;;15.56;100.00;99439.41;5026055;28;20558;-75
2023/11/04 09:16:37;;;;;;;98.65;88.68;;;;;;;15.73;100.00;99366.84;5026542;28;20053;-75
2023/11/04 09:19:04;;;;;;;80.32;74.18;;;;;;;15.56;100.00;99319.78;5023680;28;20635;-75
2023/11/04 09:21:31;;;;;;;68.13;62.92;;;;;;;16.06;100.00;99286.94;5020424;28;20048;-75
2023/11/04 09:23:58;;;;;;;79.03;72.88;;;;;;;16.52;100.00;99303.53;5023970;28;20049;-76
2023/11/04 09:26:25;;;;;;;83.25;76.35;;;;;;;16.63;100.00;99305.03;5017552;28;20045;-76
2023/11/04 09:28:53;;;;;;;77.20;71.20;;;;;;;16.49;100.00;99344.28;5019698;28;20136;-75
2023/11/04 09:31:20;;;;;;;81.55;75.20;;;;;;;16.76;100.00;99330.44;5023249;28;20048;-75
2023/11/04 09:33:48;;;;;;;90.18;83.78;;;;;;;16.75;100.00;99338.75;5021276;28;20051;-77
2023/11/04 09:36:15;;;;;;;82.95;76.85;;;;;;;16.80;100.00;99330.69;5018837;28;20434;-75
2023/11/04 09:38:42;;;;;;;85.32;79.03;;;;;;;16.67;100.00;99311.47;5021190;28;20056;-75
2023/11/04 09:41:10;;;;;;;78.55;72.65;;;;;;;16.63;100.00;99301.56;5021411;28;20060;-75
2023/11/04 09:43:37;;;;;;;88.75;82.28;;;;;;;16.48;100.00;99313.97;5021187;28;20045;-75
2023/11/04 09:46:07;;;;;;;78.97;72.88;;;;;;;16.52;100.00;99313.44;5024337;28;20076;-75
2023/11/04 09:48:37;;;;;;;81.88;75.68;;;;;;;16.52;100.00;99316.94;5022088;28;20095;-75
2023/11/04 09:51:12;;;;;;;82.90;76.68;;;;;;;16.36;100.00;99328.81;5025018;28;20076;-75
2023/11/04 09:53:48;;;;;;;85.57;79.18;;;;;;;16.37;100.00;99319.69;5020279;28;20612;-75
2023/11/04 09:56:15;;;;;;;77.43;71.32;;;;;;;16.40;100.00;99308.41;5023850;28;20064;-76
2023/11/04 09:58:42;;;;;;;80.03;73.97;;;;;;;16.51;100.00;99322.56;5024529;28;20253;-75
2023/11/04 10:01:09;;;;;;;76.55;70.45;;;;;;;16.26;100.00;99330.47;5024272;28;20049;-76
2023/11/04 10:03:35;;;;;;;78.45;72.55;;;;;;;16.26;100.00;99325.13;5021633;28;20478;-76
2023/11/04 10:06:03;;;;;;;75.57;69.78;;;;;;;15.97;100.00;99324.19;5022255;28;20493;-76
2023/11/04 10:08:32;;;;;;;79.32;73.22;;;;;;;15.91;100.00;99318.06;5030111;28;20045;-75
2023/11/04 10:10:59;;;;;;;79.63;73.63;;;;;;;16.10;100.00;99299.50;5026363;28;20046;-75
2023/11/04 10:13:25;;;;;;;84.43;77.82;;;;;;;15.95;100.00;99324.50;5030385;28;20534;-75
2023/11/04 10:15:52;;;;;;;71.10;65.40;;;;;;;15.66;100.00;99348.38;5031203;28;20060;-76
2023/11/04 10:18:19;;;;;;;67.82;61.92;;;;;;;15.83;100.00;99372.19;5031726;28;20053;-73
2023/11/04 10:20:50;;;;;;;67.45;61.35;;;;;;;15.73;100.00;99394.44;5028522;28;20049;-75
2023/11/04 10:23:17;;;;;;;70.65;64.85;;;;;;;15.74;100.00;99385.34;5027263;28;20053;-74
2023/11/04 10:25:45;;;;;;;74.25;68.22;;;;;;;16.02;100.00;99354.44;5028914;28;20437;-74
2023/11/04 10:28:12;;;;;;;68.35;62.55;;;;;;;16.15;100.00;99326.25;5027416;28;20045;-75
2023/11/04 10:30:39;;;;;;;70.32;63.97;;;;;;;16.13;100.00;99344.50;5033839;28;20046;-76
2023/11/04 10:33:09;;;;;;;66.28;60.67;;;;;;;15.99;100.00;99346.16;5034421;28;20052;-75
2023/11/04 10:35:38;;;;;;;63.22;58.03;;;;;;;16.05;100.00;99358.44;5038129;28;20484;-74
2023/11/04 10:38:07;;;;;;;63.28;58.00;;;;;;;16.07;100.00;99367.00;5033174;28;20103;-75
2023/11/04 10:40:35;;;;;;;65.10;59.83;;;;;;;15.61;100.00;99377.81;5036145;28;20186;-75
2023/11/04 10:43:11;;;;;;;70.75;64.95;;;;;;;16.00;100.00;99345.88;5031938;28;20041;-75
2023/11/04 10:45:42;;;;;;;55.67;51.28;;;;;;;15.96;100.00;99349.38;5028588;28;20075;-73
2023/11/04 10:48:17;;;;;;;62.13;57.08;;;;;;;15.33;100.00;99369.31;5029371;28;20553;-75
2023/11/04 10:50:46;;;;;;;54.58;49.47;;;;;;;15.51;100.00;99367.16;5030157;28;20059;-73
2023/11/04 10:53:18;;;;;;;60.17;55.10;;;;;;;15.50;100.00;99325.44;5030277;28;20041;-73
2023/11/04 10:55:53;;;;;;;60.10;55.00;;;;;;;15.50;100.00;99287.97;5035607;28;20053;-73
2023/11/04 10:58:28;;;;;;;69.45;62.83;;;;;;;15.28;100.00;99309.66;5028900;28;20591;-75
2023/11/04 11:00:56;;;;;;;66.43;58.92;;;;;;;15.27;100.00;99310.75;5030193;28;20061;-75
2023/11/04 11:03:26;;;;;;;57.35;52.03;;;;;;;15.03;100.00;99319.34;5029246;28;20140;-73
2023/11/04 11:05:55;;;;;;;63.53;58.33;;;;;;;15.23;100.00;99293.66;5027867;28;20431;-75
2023/11/04 11:08:23;;;;;;;64.68;59.08;;;;;;;15.23;100.00;99315.84;5028920;28;20486;-76
2023/11/04 11:11:00;;;;;;;58.67;52.40;;;;;;;15.14;100.00;99314.78;5031398;28;20045;-75